createdAt,value
2023-01-26T00:00:14.786Z,-3.48
2023-01-26T00:02:41.364Z,-3.55
2023-01-26T00:05:08.594Z,-3.60
2023-01-26T00:07:35.105Z,-3.59
2023-01-26T00:10:03.562Z,-3.57
2023-01-26T00:12:30.129Z,-3.57
2023-01-26T00:14:56.673Z,-3.51
2023-01-26T00:17:23.197Z,-3.50
2023-01-26T00:19:49.764Z,-3.46
2023-01-26T00:22:16.272Z,-3.52
2023-01-26T00:24:44.924Z,-3.61
2023-01-26T00:27:12.904Z,-3.62
2023-01-26T00:29:39.507Z,-3.60
2023-01-26T00:32:06.202Z,-3.63
2023-01-26T00:34:32.943Z,-3.61
2023-01-26T00:36:59.472Z,-3.61
2023-01-26T00:39:26.012Z,-3.60
2023-01-26T00:41:52.588Z,-3.63
2023-01-26T00:44:20.455Z,-3.61
2023-01-26T00:46:47.193Z,-3.64
2023-01-26T00:49:13.812Z,-3.60
2023-01-26T00:51:40.533Z,-3.63
2023-01-26T00:54:07.159Z,-3.63
2023-01-26T00:56:33.693Z,-3.67
2023-01-26T00:59:00.299Z,-3.72
2023-01-26T01:01:28.195Z,-3.70
2023-01-26T01:03:54.719Z,-3.66
2023-01-26T01:06:21.340Z,-3.70
2023-01-26T01:08:48.196Z,-3.80
2023-01-26T01:11:14.913Z,-3.79
2023-01-26T01:13:41.845Z,-3.73
2023-01-26T01:16:09.667Z,-3.70
2023-01-26T01:18:38.007Z,-3.70
2023-01-26T01:21:07.343Z,-3.69
2023-01-26T01:23:33.922Z,-3.66
2023-01-26T01:26:01.330Z,-3.67
2023-01-26T01:28:28.349Z,-3.64
2023-01-26T01:30:55.045Z,-3.66
2023-01-26T01:33:22.232Z,-3.66
2023-01-26T01:35:57.620Z,-3.65
2023-01-26T01:38:24.529Z,-3.68
2023-01-26T01:40:51.565Z,-3.76
2023-01-26T01:43:18.537Z,-3.76
2023-01-26T01:45:46.668Z,-3.77
2023-01-26T01:48:20.586Z,-3.80
2023-01-26T01:50:49.011Z,-3.81
2023-01-26T01:53:21.050Z,-3.84
2023-01-26T01:55:47.652Z,-3.83
2023-01-26T01:58:14.863Z,-3.79
2023-01-26T02:00:41.504Z,-3.81
2023-01-26T02:03:09.380Z,-3.81
2023-01-26T02:05:40.824Z,-3.83
2023-01-26T02:08:08.258Z,-3.83
2023-01-26T02:10:36.977Z,-3.84
2023-01-26T02:13:05.257Z,-3.86
2023-01-26T02:15:32.109Z,-3.84
2023-01-26T02:18:03.321Z,-3.84
2023-01-26T02:20:40.823Z,-3.82
2023-01-26T02:23:16.348Z,-3.78
2023-01-26T02:25:51.153Z,-3.72
2023-01-26T02:28:21.646Z,-3.72
2023-01-26T02:30:48.600Z,-3.72
2023-01-26T02:33:15.463Z,-3.70
2023-01-26T02:35:42.016Z,-3.71
2023-01-26T02:38:08.623Z,-3.72
2023-01-26T02:40:41.671Z,-3.72
2023-01-26T02:43:08.315Z,-3.75
2023-01-26T02:45:37.219Z,-3.70
2023-01-26T02:48:04.331Z,-3.68
2023-01-26T02:50:31.176Z,-3.74
2023-01-26T02:52:58.747Z,-3.76
2023-01-26T02:55:25.669Z,-3.82
2023-01-26T02:57:54.426Z,-3.75
2023-01-26T03:00:23.429Z,-3.80
2023-01-26T03:02:53.646Z,-3.82
2023-01-26T03:05:20.252Z,-3.88
2023-01-26T03:07:47.302Z,-3.86
2023-01-26T03:10:14.196Z,-3.87
2023-01-26T03:12:40.872Z,-3.88
2023-01-26T03:15:09.006Z,-3.95
2023-01-26T03:17:35.620Z,-4.02
2023-01-26T03:20:04.938Z,-4.12
2023-01-26T03:22:31.515Z,-4.17
2023-01-26T03:24:58.112Z,-4.15
2023-01-26T03:27:24.681Z,-4.16
2023-01-26T03:29:51.215Z,-4.14
2023-01-26T03:32:18.119Z,-4.13
2023-01-26T03:34:44.922Z,-4.15
2023-01-26T03:37:12.892Z,-4.15
2023-01-26T03:39:39.428Z,-4.18
2023-01-26T03:42:06.575Z,-4.20
2023-01-26T03:44:33.063Z,-4.20
2023-01-26T03:47:00.584Z,-4.19
2023-01-26T03:49:27.231Z,-4.19
2023-01-26T03:51:53.912Z,-4.23
2023-01-26T03:54:21.901Z,-4.30
2023-01-26T03:56:48.598Z,-4.26
2023-01-26T03:59:15.526Z,-4.29
2023-01-26T04:01:43.827Z,-4.31
2023-01-26T04:04:11.056Z,-4.28
2023-01-26T04:06:39.158Z,-4.25
2023-01-26T04:09:05.790Z,-4.28
2023-01-26T04:11:33.868Z,-4.35
2023-01-26T04:14:00.572Z,-4.38
2023-01-26T04:16:27.155Z,-4.41
2023-01-26T04:18:53.810Z,-4.37
2023-01-26T04:21:20.379Z,-4.44
2023-01-26T04:23:47.075Z,-4.52
2023-01-26T04:26:14.357Z,-4.52
2023-01-26T04:28:42.495Z,-4.53
2023-01-26T04:31:09.211Z,-4.51
2023-01-26T04:33:35.954Z,-4.51
2023-01-26T04:36:04.000Z,-4.53
2023-01-26T04:38:30.550Z,-4.52
2023-01-26T04:40:57.281Z,-4.54
2023-01-26T04:43:23.943Z,-4.49
2023-01-26T04:45:59.732Z,-4.54
2023-01-26T04:48:26.402Z,-4.54
2023-01-26T04:50:56.824Z,-4.53
2023-01-26T04:53:23.753Z,-4.54
2023-01-26T04:55:50.501Z,-4.54
2023-01-26T04:58:17.094Z,-4.55
2023-01-26T05:00:44.287Z,-4.55
2023-01-26T05:03:12.340Z,-4.51
2023-01-26T05:05:39.453Z,-4.49
2023-01-26T05:08:06.509Z,-4.56
2023-01-26T05:10:33.409Z,-4.64
2023-01-26T05:13:00.166Z,-4.62
2023-01-26T05:15:26.839Z,-4.66
2023-01-26T05:17:53.575Z,-4.71
2023-01-26T05:20:21.655Z,-4.69
2023-01-26T05:22:48.191Z,-4.66
2023-01-26T05:25:14.863Z,-4.65
2023-01-26T05:27:41.435Z,-4.65
2023-01-26T05:30:11.422Z,-4.62
2023-01-26T05:32:39.298Z,-4.62
2023-01-26T05:35:07.412Z,-4.59
2023-01-26T05:37:35.513Z,-4.59
2023-01-26T05:40:02.075Z,-4.54
2023-01-26T05:42:28.670Z,-4.54
2023-01-26T05:44:55.342Z,-4.56
2023-01-26T05:47:22.258Z,-4.54
2023-01-26T05:49:48.841Z,-4.50
2023-01-26T05:52:17.537Z,-4.49
2023-01-26T05:54:46.100Z,-4.56
2023-01-26T05:57:12.962Z,-4.57
2023-01-26T05:59:39.516Z,-4.59
2023-01-26T06:02:06.083Z,-4.60
2023-01-26T06:04:32.880Z,-4.66
2023-01-26T06:06:59.930Z,-4.64
2023-01-26T06:09:27.552Z,-4.66
2023-01-26T06:11:56.879Z,-4.60
2023-01-26T06:14:23.528Z,-4.67
2023-01-26T06:16:50.232Z,-4.69
2023-01-26T06:19:16.834Z,-4.69
2023-01-26T06:21:43.429Z,-4.65
2023-01-26T06:24:10.256Z,-4.63
2023-01-26T06:26:36.766Z,-4.61
2023-01-26T06:29:04.817Z,-4.61
2023-01-26T06:31:31.455Z,-4.56
2023-01-26T06:33:58.196Z,-4.51
2023-01-26T06:36:24.707Z,-4.48
2023-01-26T06:38:51.994Z,-4.48
2023-01-26T06:41:18.840Z,-4.48
2023-01-26T06:43:47.159Z,-4.52
2023-01-26T06:46:16.636Z,-4.48
2023-01-26T06:48:43.442Z,-4.46
2023-01-26T06:51:40.532Z,-4.44
2023-01-26T06:54:10.407Z,-4.48
2023-01-26T06:56:37.072Z,-4.49
2023-01-26T06:59:03.885Z,-4.45
2023-01-26T07:01:36.407Z,-4.47
2023-01-26T07:04:03.036Z,-4.45
2023-01-26T07:06:29.598Z,-4.45
2023-01-26T07:08:56.184Z,-4.44
2023-01-26T07:11:22.690Z,-4.44
2023-01-26T07:13:49.213Z,-4.49
2023-01-26T07:16:17.087Z,-4.47
2023-01-26T07:18:44.987Z,-4.44
2023-01-26T07:21:13.141Z,-4.48
2023-01-26T07:23:39.775Z,-4.44
2023-01-26T07:26:06.873Z,-4.42
2023-01-26T07:28:33.702Z,-4.43
2023-01-26T07:31:00.908Z,-4.42
2023-01-26T07:33:28.745Z,-4.42
2023-01-26T07:35:57.621Z,-4.43
2023-01-26T07:38:24.968Z,-4.39
2023-01-26T07:40:52.155Z,-4.37
2023-01-26T07:43:18.936Z,-4.35
2023-01-26T07:45:45.858Z,-4.36
2023-01-26T07:48:12.741Z,-4.32
2023-01-26T07:50:39.319Z,-4.28
2023-01-26T07:53:07.272Z,-4.21
2023-01-26T07:55:34.024Z,-4.20
2023-01-26T07:58:00.563Z,-4.18
2023-01-26T08:00:27.128Z,-4.15
2023-01-26T08:02:53.778Z,-4.15
2023-01-26T08:05:20.403Z,-4.09
2023-01-26T08:07:47.147Z,-4.09
2023-01-26T08:10:15.127Z,-4.13
2023-01-26T08:12:41.715Z,-4.09
2023-01-26T08:15:09.681Z,-4.05
2023-01-26T08:17:36.335Z,-4.04
2023-01-26T08:20:03.082Z,-3.99
2023-01-26T08:22:29.664Z,-3.95
2023-01-26T08:24:56.241Z,-3.98
2023-01-26T08:27:24.239Z,-3.93
2023-01-26T08:29:50.819Z,-3.87
2023-01-26T08:32:17.575Z,-3.89
2023-01-26T08:34:44.134Z,-3.88
2023-01-26T08:37:10.794Z,-3.81
2023-01-26T08:39:37.359Z,-3.80
2023-01-26T08:42:04.040Z,-3.79
2023-01-26T08:44:32.108Z,-3.82
2023-01-26T08:46:58.703Z,-3.90
2023-01-26T08:49:25.327Z,-3.91
2023-01-26T08:51:51.878Z,-3.96
2023-01-26T08:54:18.724Z,-3.98
2023-01-26T08:56:45.302Z,-3.89
2023-01-26T08:59:11.919Z,-3.85
2023-01-26T09:01:39.857Z,-3.81
2023-01-26T09:04:06.429Z,-3.81
2023-01-26T09:06:32.976Z,-3.83
2023-01-26T09:08:59.584Z,-3.78
2023-01-26T09:11:26.172Z,-3.80
2023-01-26T09:13:52.933Z,-3.84
2023-01-26T09:16:20.248Z,-3.81
2023-01-26T09:18:51.039Z,-3.82
2023-01-26T09:21:18.255Z,-3.88
2023-01-26T09:23:44.815Z,-3.83
2023-01-26T09:26:11.530Z,-3.86
2023-01-26T09:28:39.062Z,-3.80
2023-01-26T09:31:07.388Z,-3.81
2023-01-26T09:33:34.661Z,-3.83
2023-01-26T09:36:07.240Z,-3.86
2023-01-26T09:38:34.115Z,-3.85
2023-01-26T09:41:07.324Z,-3.84
2023-01-26T09:43:38.728Z,-3.73
2023-01-26T09:46:19.240Z,-3.66
2023-01-26T09:48:53.242Z,-3.59
2023-01-26T09:51:28.156Z,-3.65
2023-01-26T09:53:57.610Z,-3.52
2023-01-26T09:56:28.198Z,-3.52
2023-01-26T09:58:58.427Z,-3.48
2023-01-26T10:01:31.700Z,-3.42
2023-01-26T10:04:04.858Z,-3.39
2023-01-26T10:06:33.751Z,-3.44
2023-01-26T10:09:03.352Z,-3.39
2023-01-26T10:11:35.160Z,-3.32
2023-01-26T10:14:07.272Z,-3.17
2023-01-26T10:16:34.638Z,-3.16
2023-01-26T10:19:06.326Z,-3.14
2023-01-26T10:21:40.159Z,-3.16
2023-01-26T10:24:10.951Z,-3.17
2023-01-26T10:26:38.160Z,-3.22
2023-01-26T10:29:05.044Z,-3.30
2023-01-26T10:31:33.835Z,-3.29
2023-01-26T10:34:08.726Z,-3.28
2023-01-26T10:36:36.740Z,-3.28
2023-01-26T10:39:05.583Z,-3.25
2023-01-26T10:41:33.249Z,-3.26
2023-01-26T10:44:01.988Z,-3.17
2023-01-26T10:46:34.035Z,-3.18
2023-01-26T10:49:02.496Z,-3.21
2023-01-26T10:51:31.194Z,-3.18
2023-01-26T10:54:23.037Z,-3.12
2023-01-26T10:56:53.336Z,-3.08
2023-01-26T10:59:27.779Z,-3.01
2023-01-26T11:01:56.709Z,-2.90
2023-01-26T11:04:24.656Z,-2.91
2023-01-26T11:06:51.866Z,-2.96
2023-01-26T11:09:24.694Z,-3.01
2023-01-26T11:12:00.050Z,-3.03
2023-01-26T11:14:27.267Z,-3.09
2023-01-26T11:17:00.028Z,-3.14
2023-01-26T11:19:51.998Z,-3.05
2023-01-26T11:22:25.569Z,-3.03
2023-01-26T11:25:03.787Z,-2.96
2023-01-26T11:27:41.263Z,-2.87
2023-01-26T11:30:38.646Z,-2.81
2023-01-26T11:33:14.509Z,-2.73
2023-01-26T11:35:51.351Z,-2.70
2023-01-26T11:38:32.478Z,-2.73
2023-01-26T11:41:12.788Z,-2.69
2023-01-26T11:44:00.014Z,-2.65
2023-01-26T11:46:46.280Z,-2.68
2023-01-26T11:49:25.661Z,-2.72
2023-01-26T11:52:05.318Z,-2.71
2023-01-26T11:54:52.762Z,-2.66
2023-01-26T11:57:31.446Z,-2.65
2023-01-26T12:00:03.840Z,-2.69
2023-01-26T12:02:32.923Z,-2.63
2023-01-26T12:05:03.026Z,-2.53
2023-01-26T12:07:34.881Z,-2.35
2023-01-26T12:10:02.883Z,-2.35
2023-01-26T12:12:38.288Z,-2.39
2023-01-26T12:15:12.441Z,-2.24
2023-01-26T12:17:48.912Z,-2.15
2023-01-26T12:20:29.156Z,-2.07
2023-01-26T12:23:04.809Z,-2.09
2023-01-26T12:25:34.922Z,-2.03
2023-01-26T12:28:14.285Z,-2.20
2023-01-26T12:30:48.496Z,-2.29
2023-01-26T12:33:15.398Z,-2.28
2023-01-26T12:36:15.132Z,-2.35
2023-01-26T12:38:51.877Z,-2.43
2023-01-26T12:41:27.637Z,-2.31
2023-01-26T12:44:10.448Z,-2.34
2023-01-26T12:46:41.167Z,-2.41
2023-01-26T12:49:15.045Z,-2.32
2023-01-26T12:51:47.396Z,-2.24
2023-01-26T12:54:20.619Z,-2.13
2023-01-26T12:56:51.251Z,-2.17
2023-01-26T12:59:47.031Z,-2.32
2023-01-26T13:02:25.109Z,-2.26
2023-01-26T13:04:52.091Z,-2.27
2023-01-26T13:07:31.604Z,-2.23
2023-01-26T13:10:24.942Z,-2.29
2023-01-26T13:12:53.814Z,-2.26
2023-01-26T13:15:23.953Z,-2.18
2023-01-26T13:17:53.412Z,-2.20
2023-01-26T13:20:46.172Z,-2.09
2023-01-26T13:23:45.865Z,-2.04
2023-01-26T13:26:49.817Z,-1.96
2023-01-26T13:29:34.612Z,-2.02
2023-01-26T13:32:56.117Z,-2.00
2023-01-26T13:35:25.702Z,-2.01
2023-01-26T13:37:59.096Z,-2.00
2023-01-26T13:40:31.396Z,-1.97
2023-01-26T13:43:06.035Z,-1.94
2023-01-26T13:45:40.353Z,-2.07
2023-01-26T13:48:14.977Z,-2.10
2023-01-26T13:50:42.557Z,-2.09
2023-01-26T13:53:34.563Z,-2.11
2023-01-26T13:56:03.228Z,-2.19
2023-01-26T13:58:29.820Z,-2.19
2023-01-26T14:01:00.935Z,-2.22
2023-01-26T14:03:29.541Z,-2.31
2023-01-26T14:05:58.611Z,-2.31
2023-01-26T14:08:25.735Z,-2.37
2023-01-26T14:10:52.665Z,-2.34
2023-01-26T14:13:28.404Z,-2.30
2023-01-26T14:16:00.342Z,-2.29
2023-01-26T14:18:27.162Z,-2.28
2023-01-26T14:21:03.753Z,-2.25
2023-01-26T14:23:34.566Z,-2.26
2023-01-26T14:26:04.224Z,-2.24
2023-01-26T14:28:33.373Z,-2.19
2023-01-26T14:31:05.703Z,-2.23
2023-01-26T14:33:33.493Z,-2.25
2023-01-26T14:36:04.955Z,-2.20
2023-01-26T14:38:43.448Z,-2.19
2023-01-26T14:41:17.363Z,-2.16
2023-01-26T14:43:44.444Z,-2.14
2023-01-26T14:46:17.385Z,-2.14
2023-01-26T14:48:50.405Z,-2.19
2023-01-26T14:51:21.724Z,-2.18
2023-01-26T14:53:50.701Z,-2.19
2023-01-26T14:56:19.794Z,-2.17
2023-01-26T14:58:51.187Z,-2.15
2023-01-26T15:01:21.890Z,-2.17
2023-01-26T15:03:50.702Z,-2.13
2023-01-26T15:06:21.180Z,-2.13
2023-01-26T15:08:56.954Z,-2.11
2023-01-26T15:11:34.604Z,-2.07
2023-01-26T15:14:01.245Z,-2.06
2023-01-26T15:16:27.849Z,-2.09
2023-01-26T15:18:58.556Z,-2.14
2023-01-26T15:21:33.038Z,-2.14
2023-01-26T15:24:00.037Z,-2.17
2023-01-26T15:26:28.718Z,-2.18
2023-01-26T15:28:57.953Z,-2.19
2023-01-26T15:31:30.310Z,-2.22
2023-01-26T15:33:56.985Z,-2.22
2023-01-26T15:36:30.967Z,-2.24
2023-01-26T15:39:00.864Z,-2.22
2023-01-26T15:41:28.389Z,-2.17
2023-01-26T15:43:54.946Z,-2.18
2023-01-26T15:46:21.516Z,-2.19
2023-01-26T15:48:48.384Z,-2.20
2023-01-26T15:51:15.641Z,-2.19
2023-01-26T15:53:43.640Z,-2.16
2023-01-26T15:56:12.625Z,-2.15
2023-01-26T15:58:39.533Z,-2.15
2023-01-26T16:01:06.709Z,-2.14
2023-01-26T16:03:33.479Z,-2.19
2023-01-26T16:06:00.065Z,-2.17
2023-01-26T16:08:26.658Z,-2.16
2023-01-26T16:10:54.822Z,-2.17
2023-01-26T16:13:21.380Z,-2.20
2023-01-26T16:15:50.131Z,-2.19
2023-01-26T16:18:17.399Z,-2.19
2023-01-26T16:20:46.039Z,-2.18
2023-01-26T16:23:17.997Z,-2.18
2023-01-26T16:25:45.166Z,-2.16
2023-01-26T16:28:13.157Z,-2.18
2023-01-26T16:30:40.160Z,-2.15
2023-01-26T16:33:06.738Z,-2.15
2023-01-26T16:35:33.341Z,-2.13
2023-01-26T16:37:59.948Z,-2.15
2023-01-26T16:40:26.663Z,-2.14
2023-01-26T16:42:53.487Z,-2.14
2023-01-26T16:45:23.646Z,-2.11
2023-01-26T16:47:52.184Z,-2.19
2023-01-26T16:50:18.913Z,-2.16
2023-01-26T16:52:45.737Z,-2.15
2023-01-26T16:55:14.302Z,-2.14
2023-01-26T16:57:41.723Z,-2.15
2023-01-26T17:00:13.727Z,-2.16
2023-01-26T17:02:42.751Z,-2.14
2023-01-26T17:05:13.762Z,-2.13
2023-01-26T17:07:40.318Z,-2.11
2023-01-26T17:10:07.381Z,-2.12
2023-01-26T17:12:33.988Z,-2.14
2023-01-26T17:15:00.536Z,-2.13
2023-01-26T17:17:27.345Z,-2.13
2023-01-26T17:19:55.205Z,-2.13
2023-01-26T17:22:21.774Z,-2.15
2023-01-26T17:24:48.302Z,-2.14
2023-01-26T17:27:14.891Z,-2.12
2023-01-26T17:29:41.451Z,-2.13
2023-01-26T17:32:08.090Z,-2.13
2023-01-26T17:34:34.793Z,-2.13
2023-01-26T17:37:02.676Z,-2.15
2023-01-26T17:39:29.240Z,-2.13
2023-01-26T17:41:55.828Z,-2.10
2023-01-26T17:44:22.652Z,-2.13
2023-01-26T17:46:49.260Z,-2.12
2023-01-26T17:49:15.978Z,-2.14
2023-01-26T17:51:42.545Z,-2.15
2023-01-26T17:54:10.435Z,-2.14
2023-01-26T17:56:37.163Z,-2.15
2023-01-26T17:59:03.783Z,-2.13
2023-01-26T18:01:30.526Z,-2.13
2023-01-26T18:03:57.201Z,-2.12
2023-01-26T18:06:23.803Z,-2.11
2023-01-26T18:08:50.585Z,-2.10
2023-01-26T18:11:18.461Z,-2.09
2023-01-26T18:13:45.085Z,-2.10
2023-01-26T18:16:15.309Z,-2.08
2023-01-26T18:18:42.160Z,-2.08
2023-01-26T18:21:14.178Z,-2.07
2023-01-26T18:23:44.255Z,-2.07
2023-01-26T18:26:10.807Z,-2.11
2023-01-26T18:28:39.463Z,-2.13
2023-01-26T18:31:10.882Z,-2.12
2023-01-26T18:33:37.784Z,-2.11
2023-01-26T18:36:06.123Z,-2.13
2023-01-26T18:38:32.771Z,-2.13
2023-01-26T18:40:59.337Z,-2.12
2023-01-26T18:43:26.043Z,-2.11
2023-01-26T18:45:54.048Z,-2.09
2023-01-26T18:48:20.590Z,-2.11
2023-01-26T18:50:48.486Z,-2.13
2023-01-26T18:53:15.070Z,-2.14
2023-01-26T18:55:41.632Z,-2.12
2023-01-26T18:58:08.303Z,-2.13
2023-01-26T19:00:34.914Z,-2.11
2023-01-26T19:03:03.152Z,-2.11
2023-01-26T19:05:30.772Z,-2.12
2023-01-26T19:07:57.394Z,-2.14
2023-01-26T19:10:23.997Z,-2.15
2023-01-26T19:12:50.614Z,-2.15
2023-01-26T19:15:17.373Z,-2.11
2023-01-26T19:17:43.918Z,-2.13
2023-01-26T19:20:12.695Z,-2.16
2023-01-26T19:22:39.378Z,-2.18
2023-01-26T19:25:06.463Z,-2.19
2023-01-26T19:27:33.021Z,-2.18
2023-01-26T19:29:59.571Z,-2.18
2023-01-26T19:32:26.145Z,-2.18
2023-01-26T19:34:52.835Z,-2.15
2023-01-26T19:37:20.888Z,-2.17
2023-01-26T19:39:47.613Z,-2.18
2023-01-26T19:42:14.180Z,-2.16
2023-01-26T19:44:40.904Z,-2.13
2023-01-26T19:47:07.417Z,-2.18
2023-01-26T19:49:34.004Z,-2.15
2023-01-26T19:52:00.586Z,-2.14
2023-01-26T19:54:28.545Z,-2.13
2023-01-26T19:56:55.077Z,-2.11
2023-01-26T19:59:21.663Z,-2.11
2023-01-26T20:01:48.271Z,-2.10
2023-01-26T20:04:15.177Z,-2.11
2023-01-26T20:06:41.815Z,-2.09
2023-01-26T20:09:08.989Z,-2.11
2023-01-26T20:11:36.940Z,-2.11
2023-01-26T20:14:05.554Z,-2.13
2023-01-26T20:16:32.899Z,-2.14
2023-01-26T20:18:59.836Z,-2.11
2023-01-26T20:21:27.654Z,-2.10
2023-01-26T20:23:55.835Z,-2.06
2023-01-26T20:26:23.559Z,-2.06
2023-01-26T20:28:52.083Z,-2.07
2023-01-26T20:31:21.185Z,-2.04
2023-01-26T20:33:49.082Z,-2.00
2023-01-26T20:36:17.889Z,-2.04
2023-01-26T20:38:46.628Z,-2.05
2023-01-26T20:41:15.867Z,-2.07
2023-01-26T20:43:58.275Z,-2.07
2023-01-26T20:46:28.754Z,-2.05
2023-01-26T20:48:56.248Z,-2.08
2023-01-26T20:51:24.666Z,-2.05
2023-01-26T20:53:51.312Z,-2.05
2023-01-26T20:56:20.776Z,-2.01
2023-01-26T20:58:47.645Z,-1.99
2023-01-26T21:01:16.553Z,-1.97
2023-01-26T21:03:45.129Z,-1.97
2023-01-26T21:06:13.740Z,-1.97
2023-01-26T21:08:41.054Z,-1.93
2023-01-26T21:11:11.478Z,-1.93
2023-01-26T21:13:38.683Z,-1.94
2023-01-26T21:16:05.883Z,-1.93
2023-01-26T21:18:32.953Z,-1.91
2023-01-26T21:21:03.334Z,-1.86
2023-01-26T21:23:30.261Z,-1.83
2023-01-26T21:26:00.917Z,-1.82
2023-01-26T21:28:28.157Z,-1.81
2023-01-26T21:31:01.008Z,-1.78
2023-01-26T21:33:27.900Z,-1.76
2023-01-26T21:35:57.788Z,-1.73
2023-01-26T21:38:26.415Z,-1.71
2023-01-26T21:40:58.245Z,-1.71
2023-01-26T21:43:24.926Z,-1.69
2023-01-26T21:45:51.524Z,-1.67
2023-01-26T21:48:18.241Z,-1.65
2023-01-26T21:50:44.840Z,-1.65
2023-01-26T21:53:11.440Z,-1.59
2023-01-26T21:55:40.957Z,-1.60
2023-01-26T21:58:07.561Z,-1.60
2023-01-26T22:00:34.146Z,-1.60
2023-01-26T22:03:00.695Z,-1.61
2023-01-26T22:05:27.257Z,-1.60
2023-01-26T22:07:53.955Z,-1.59
2023-01-26T22:10:20.495Z,-1.59
2023-01-26T22:12:48.581Z,-1.58
2023-01-26T22:15:15.312Z,-1.57
2023-01-26T22:17:41.889Z,-1.56
2023-01-26T22:20:10.214Z,-1.54
2023-01-26T22:22:36.895Z,-1.56
2023-01-26T22:25:03.656Z,-1.56
2023-01-26T22:27:30.165Z,-1.56
2023-01-26T22:29:58.103Z,-1.53
2023-01-26T22:32:24.687Z,-1.53
2023-01-26T22:34:51.528Z,-1.51
2023-01-26T22:37:18.111Z,-1.48
2023-01-26T22:39:44.690Z,-1.50
2023-01-26T22:42:11.236Z,-1.49
2023-01-26T22:44:37.835Z,-1.44
2023-01-26T22:47:05.766Z,-1.45
2023-01-26T22:49:32.501Z,-1.44
2023-01-26T22:51:59.235Z,-1.41
2023-01-26T22:54:25.801Z,-1.42
2023-01-26T22:56:52.492Z,-1.41
2023-01-26T22:59:19.207Z,-1.41
2023-01-26T23:01:45.792Z,-1.35
2023-01-26T23:04:13.936Z,-1.40
2023-01-26T23:06:40.542Z,-1.42
2023-01-26T23:09:07.100Z,-1.40
2023-01-26T23:11:33.623Z,-1.40
2023-01-26T23:14:00.719Z,-1.39
2023-01-26T23:16:27.960Z,-1.38
2023-01-26T23:18:56.563Z,-1.39
2023-01-26T23:21:25.448Z,-1.40
2023-01-26T23:23:52.077Z,-1.39
2023-01-26T23:26:19.068Z,-1.40
2023-01-26T23:28:45.667Z,-1.39
2023-01-26T23:31:14.318Z,-1.38
2023-01-26T23:33:41.399Z,-1.36
2023-01-26T23:36:09.703Z,-1.40
2023-01-26T23:38:37.660Z,-1.42
2023-01-26T23:41:04.711Z,-1.41
2023-01-26T23:43:31.679Z,-1.41
2023-01-26T23:45:58.206Z,-1.41
2023-01-26T23:48:25.153Z,-1.41
2023-01-26T23:50:55.324Z,-1.39
2023-01-26T23:53:21.980Z,-1.41
2023-01-26T23:55:50.063Z,-1.41
2023-01-26T23:58:16.787Z,-1.41
